Time;durP1;ratioP1;P1;durP2;ratioP2;P2;SDS_P1;SDS_P2;PMS_P1;PMS_P2;Temp;Humidity;BMP_temperature;BMP_pressure;BME280_temperature;BME280_humidity;BME280_pressure;Samples;Min_cycle;Max_cycle;Signal;HPM_P1;HPM_P2
2021/03/22 00:00:34;;;;;;;17.20;4.43;;;6.60;76.00;;;;;;5074097;28;20190;-79
2021/03/22 00:03:00;;;;;;;16.13;4.03;;;6.70;75.00;;;;;;5095808;28;20540;-79
2021/03/22 00:05:26;;;;;;;16.33;4.53;;;6.70;71.90;;;;;;5095897;28;20226;-79
2021/03/22 00:07:53;;;;;;;18.37;5.73;;;6.70;75.60;;;;;;5095880;28;20168;-80
2021/03/22 00:10:21;;;;;;;20.37;4.20;;;6.70;76.30;;;;;;5088544;28;20265;-81
2021/03/22 00:12:47;;;;;;;19.17;4.67;;;6.80;75.20;;;;;;5075446;28;20716;-79
2021/03/22 00:15:15;;;;;;;20.07;5.43;;;6.80;72.90;;;;;;5075558;28;20674;-85
2021/03/22 00:17:41;;;;;;;19.93;5.43;;;6.60;74.30;;;;;;5057683;28;20184;-80
2021/03/22 00:20:08;;;;;;;17.53;4.57;;;6.70;74.90;;;;;;5075874;28;20204;-84
2021/03/22 00:22:34;;;;;;;17.77;4.00;;;6.60;78.60;;;;;;5057958;28;20518;-81
2021/03/22 00:24:59;;;;;;;17.37;4.97;;;6.50;81.40;;;;;;5075228;28;20195;-79
2021/03/22 00:27:25;;;;;;;20.03;5.80;;;6.50;84.60;;;;;;5077018;28;20245;-82
2021/03/22 00:29:50;;;;;;;19.37;4.93;;;6.50;86.20;;;;;;5081918;28;20210;-82
2021/03/22 00:32:16;;;;;;;23.80;5.30;;;6.40;87.20;;;;;;5089028;28;20706;-83
2021/03/22 00:34:42;;;;;;;21.40;4.40;;;6.40;88.00;;;;;;5080942;28;20215;-82
2021/03/22 00:37:08;;;;;;;18.47;4.67;;;6.40;89.80;;;;;;5075584;28;20172;-86
2021/03/22 00:39:36;;;;;;;25.60;5.87;;;6.40;90.20;;;;;;5076876;28;20175;-87
2021/03/22 00:42:03;;;;;;;17.67;5.20;;;6.40;90.10;;;;;;5057941;28;20191;-77
2021/03/22 00:44:31;;;;;;;24.33;6.17;;;6.50;90.70;;;;;;5076037;28;20160;-80
2021/03/22 00:46:58;;;;;;;22.63;5.70;;;6.50;90.00;;;;;;5075600;28;20298;-84
2021/03/22 00:49:23;;;;;;;25.63;7.03;;;6.60;90.10;;;;;;5075523;28;20165;-88
2021/03/22 00:51:49;;;;;;;16.77;5.20;;;6.70;89.40;;;;;;5057526;28;20226;-85
2021/03/22 00:54:15;;;;;;;19.77;5.20;;;6.80;88.80;;;;;;5075717;28;20245;-83
2021/03/22 00:56:41;;;;;;;21.43;4.97;;;6.70;88.70;;;;;;5075743;28;20255;-80
2021/03/22 00:59:06;;;;;;;17.50;4.50;;;6.50;90.50;;;;;;5075202;28;20698;-81
2021/03/22 01:01:33;;;;;;;21.20;6.33;;;6.50;91.70;;;;;;5074835;28;20172;-78
2021/03/22 01:03:58;;;;;;;19.73;5.47;;;6.70;91.70;;;;;;5075290;28;20219;-78
2021/03/22 01:06:24;;;;;;;21.07;4.83;;;6.70;91.30;;;;;;5075646;28;20232;-86
2021/03/22 01:08:50;;;;;;;16.93;5.67;;;6.70;91.60;;;;;;5056987;28;20174;-85
2021/03/22 01:11:20;;;;;;;22.20;6.53;;;6.70;91.90;;;;;;5072296;28;20274;-78
2021/03/22 01:13:49;;;;;;;17.17;5.10;;;6.60;92.60;;;;;;5077043;28;20216;-81
2021/03/22 01:16:17;;;;;;;16.47;5.33;;;6.70;92.90;;;;;;5095172;28;20220;-79
2021/03/22 01:18:48;;;;;;;21.20;5.70;;;6.80;92.90;;;;;;5095530;28;20174;-78
2021/03/22 01:21:28;;;;;;;16.93;5.37;;;6.70;92.50;;;;;;5095414;28;20174;-82
2021/03/22 01:23:54;;;;;;;23.83;6.17;;;6.60;93.40;;;;;;5095947;28;20171;-82
2021/03/22 01:26:23;;;;;;;20.10;5.40;;;6.50;94.10;;;;;;5077221;28;20676;-77
2021/03/22 01:28:49;;;;;;;19.23;5.13;;;6.60;94.30;;;;;;5095215;28;20183;-79
2021/03/22 01:31:16;;;;;;;18.40;5.63;;;6.60;94.00;;;;;;5077265;28;20623;-82
2021/03/22 01:33:43;;;;;;;17.23;5.37;;;6.50;94.10;;;;;;5077125;28;20176;-81
2021/03/22 01:36:13;;;;;;;19.23;7.10;;;6.50;95.20;;;;;;5095294;28;20195;-81
2021/03/22 01:38:40;;;;;;;21.87;7.07;;;6.40;95.10;;;;;;5094298;28;20693;-88
2021/03/22 01:41:43;;;;;;;20.47;6.53;;;6.30;95.80;;;;;;5095177;28;20203;-87
2021/03/22 01:44:28;;;;;;;21.77;6.20;;;6.20;96.40;;;;;;5081497;28;20647;-86
2021/03/22 01:47:02;;;;;;;20.23;6.13;;;6.20;97.00;;;;;;5095706;28;20289;-82
2021/03/22 01:49:33;;;;;;;21.73;6.77;;;6.30;97.00;;;;;;5095171;28;20251;-86
2021/03/22 01:52:00;;;;;;;24.63;6.77;;;6.50;96.70;;;;;;5077505;28;20212;-79
2021/03/22 01:54:25;;;;;;;21.63;6.73;;;6.40;96.10;;;;;;5094886;28;20631;-89
2021/03/22 01:56:54;;;;;;;16.60;5.83;;;6.50;96.10;;;;;;5077110;28;20179;-82
2021/03/22 01:59:38;;;;;;;20.50;6.67;;;6.40;96.00;;;;;;5077266;28;20171;-85
2021/03/22 02:02:04;;;;;;;22.03;7.30;;;6.40;96.10;;;;;;5078690;28;20176;-83
2021/03/22 02:04:30;;;;;;;17.53;6.03;;;6.40;96.30;;;;;;5095280;28;20254;-79
2021/03/22 02:06:58;;;;;;;20.80;6.27;;;6.30;96.90;;;;;;5094935;28;20282;-87
2021/03/22 02:09:24;;;;;;;17.40;6.20;;;6.30;97.40;;;;;;5077102;28;20203;-88
2021/03/22 02:11:49;;;;;;;24.40;7.80;;;6.30;97.40;;;;;;5060799;28;20640;-78
2021/03/22 02:14:15;;;;;;;24.03;7.57;;;6.30;97.20;;;;;;5075238;28;20179;-81
2021/03/22 02:16:56;;;;;;;21.47;6.50;;;6.30;97.30;;;;;;5074842;28;20165;-88
2021/03/22 02:19:47;;;;;;;18.33;7.53;;;6.40;96.90;;;;;;5057143;28;20237;-86
2021/03/22 02:22:47;;;;;;;20.83;6.63;;;6.40;96.60;;;;;;5063348;28;20246;-83
2021/03/22 02:25:33;;;;;;;22.43;7.90;;;6.30;96.90;;;;;;5065702;28;20195;-75
2021/03/22 02:28:26;;;;;;;22.10;8.13;;;6.40;97.50;;;;;;5090754;28;20261;-78
2021/03/22 02:31:36;;;;;;;22.83;7.70;;;6.50;97.20;;;;;;5089264;28;20164;-78
2021/03/22 02:34:27;;;;;;;22.67;7.50;;;6.40;96.90;;;;;;5072103;28;20176;-79
2021/03/22 02:37:20;;;;;;;16.83;6.20;;;6.40;97.30;;;;;;5088449;28;20526;-78
2021/03/22 02:40:04;;;;;;;23.67;8.53;;;6.40;97.10;;;;;;5105567;28;20174;-79
2021/03/22 02:42:31;;;;;;;21.60;7.30;;;6.40;97.10;;;;;;5108273;28;20182;-77
2021/03/22 02:44:56;;;;;;;24.87;8.37;;;6.40;97.30;;;;;;5087156;28;20180;-86
2021/03/22 02:47:32;;;;;;;24.93;8.30;;;6.30;97.50;;;;;;5075542;28;20221;-87
2021/03/22 02:50:01;;;;;;;25.10;8.70;;;6.40;97.40;;;;;;5093724;28;20175;-88
2021/03/22 02:52:43;;;;;;;30.60;8.40;;;6.40;97.40;;;;;;5093886;28;20211;-81
2021/03/22 02:55:20;;;;;;;24.27;9.37;;;6.30;97.60;;;;;;5093571;28;20180;-84
2021/03/22 02:57:58;;;;;;;24.90;8.50;;;6.20;98.10;;;;;;5075994;28;20633;-85
2021/03/22 03:00:35;;;;;;;25.70;8.63;;;6.30;98.70;;;;;;5093935;28;20171;-86
2021/03/22 03:03:04;;;;;;;23.03;8.27;;;6.40;98.30;;;;;;5093892;28;20190;-82
2021/03/22 03:05:34;;;;;;;22.53;9.27;;;6.40;98.30;;;;;;5093578;28;20638;-82
2021/03/22 03:08:04;;;;;;;24.93;9.87;;;6.40;97.90;;;;;;5075735;28;20179;-85
2021/03/22 03:10:30;;;;;;;25.77;9.67;;;6.30;98.60;;;;;;5084780;28;20192;-78
2021/03/22 03:12:56;;;;;;;22.10;8.73;;;6.30;98.90;;;;;;5073363;28;20172;-88
2021/03/22 03:15:22;;;;;;;35.53;9.47;;;6.30;99.00;;;;;;5073458;28;20179;-87
2021/03/22 03:17:49;;;;;;;28.70;9.87;;;6.20;99.20;;;;;;5073155;28;20271;-79
2021/03/22 03:20:18;;;;;;;23.83;8.77;;;6.20;99.50;;;;;;5055069;28;20222;-81
2021/03/22 03:22:44;;;;;;;19.60;8.70;;;6.20;99.80;;;;;;5072680;28;20501;-80
2021/03/22 03:25:11;;;;;;;27.87;8.57;;;6.20;99.70;;;;;;5073065;28;20191;-86
2021/03/22 03:27:37;;;;;;;20.73;8.53;;;6.20;99.90;;;;;;5055192;28;20346;-80
2021/03/22 03:30:09;;;;;;;23.43;8.93;;;6.30;99.90;;;;;;5073387;28;20168;-85
2021/03/22 03:32:35;;;;;;;26.53;9.17;;;6.30;99.90;;;;;;5072567;28;20189;-81
2021/03/22 03:35:01;;;;;;;28.27;9.77;;;6.40;99.70;;;;;;5073493;28;20172;-79
2021/03/22 03:37:26;;;;;;;27.47;9.40;;;6.60;99.60;;;;;;5077085;28;20667;-83
2021/03/22 03:39:52;;;;;;;29.00;9.57;;;6.30;99.40;;;;;;5093888;28;20179;-84
2021/03/22 03:42:18;;;;;;;26.83;9.90;;;6.40;99.60;;;;;;5097253;28;20172;-86
2021/03/22 03:44:43;;;;;;;26.47;9.30;;;6.40;99.70;;;;;;5097358;28;20176;-88
2021/03/22 03:47:09;;;;;;;26.23;9.23;;;6.40;99.50;;;;;;5101522;28;20245;-87
2021/03/22 03:49:36;;;;;;;26.43;9.30;;;6.40;99.20;;;;;;5097126;28;20171;-85
2021/03/22 03:52:04;;;;;;;36.17;10.33;;;6.30;99.40;;;;;;5097009;28;20176;-83
2021/03/22 03:54:30;;;;;;;25.70;9.67;;;6.40;99.80;;;;;;5096851;28;20171;-88
2021/03/22 03:56:55;;;;;;;24.63;8.87;;;6.40;99.80;;;;;;5097093;28;20724;-86
2021/03/22 03:59:21;;;;;;;26.10;9.20;;;6.40;99.30;;;;;;5096962;28;20209;-81
2021/03/22 04:01:47;;;;;;;26.53;9.33;;;6.40;99.40;;;;;;5078699;28;20164;-80
2021/03/22 04:04:12;;;;;;;27.83;10.37;;;6.40;99.00;;;;;;5097493;28;20258;-83
2021/03/22 04:06:38;;;;;;;29.83;10.80;;;6.40;98.60;;;;;;5097263;28;20279;-78
2021/03/22 04:09:07;;;;;;;22.80;8.80;;;6.40;98.50;;;;;;5097851;28;20172;-82
2021/03/22 04:11:47;;;;;;;21.53;8.60;;;6.40;98.60;;;;;;5061596;28;20181;-83
2021/03/22 04:14:21;;;;;;;22.93;9.77;;;6.40;98.00;;;;;;5058852;28;20187;-83
2021/03/22 04:16:47;;;;;;;23.77;9.30;;;6.30;97.90;;;;;;5058326;28;20307;-87
2021/03/22 04:19:13;;;;;;;22.37;9.87;;;6.30;97.70;;;;;;5076699;28;20192;-83
2021/03/22 04:21:40;;;;;;;21.17;8.60;;;6.30;97.10;;;;;;5058280;28;20180;-84
2021/03/22 04:24:06;;;;;;;20.50;8.37;;;6.30;96.60;;;;;;5076256;28;20204;-82
2021/03/22 04:26:32;;;;;;;21.13;8.00;;;6.30;96.00;;;;;;5075682;28;20269;-80
2021/03/22 04:28:57;;;;;;;23.07;8.73;;;6.30;95.70;;;;;;5076729;28;20164;-82
2021/03/22 04:31:26;;;;;;;20.93;8.30;;;6.30;95.10;;;;;;5063873;28;20206;-79
2021/03/22 04:33:53;;;;;;;21.03;8.20;;;6.40;94.10;;;;;;5081071;28;20258;-80
2021/03/22 04:36:24;;;;;;;23.70;8.60;;;6.40;93.10;;;;;;5065997;28;20164;-84
2021/03/22 04:38:49;;;;;;;19.93;8.50;;;6.40;92.50;;;;;;5072548;28;20167;-81
2021/03/22 04:41:15;;;;;;;17.87;8.33;;;6.50;91.80;;;;;;5095975;28;20183;-83
2021/03/22 04:43:41;;;;;;;20.90;8.30;;;6.40;91.00;;;;;;5078047;28;20315;-86
2021/03/22 04:46:17;;;;;;;19.27;7.37;;;6.50;90.90;;;;;;5095908;28;20292;-82
2021/03/22 04:48:44;;;;;;;21.87;8.57;;;6.50;89.90;;;;;;5095165;28;20541;-81
2021/03/22 04:51:10;;;;;;;20.17;8.43;;;6.50;89.20;;;;;;5095764;28;20250;-82
2021/03/22 04:53:35;;;;;;;21.90;9.37;;;6.40;89.80;;;;;;5095584;28;20207;-86
2021/03/22 04:56:01;;;;;;;18.53;7.67;;;6.50;90.30;;;;;;5077246;28;20176;-81
2021/03/22 04:58:26;;;;;;;21.23;8.60;;;6.40;90.50;;;;;;5095209;28;20166;-78
2021/03/22 05:00:52;;;;;;;22.80;8.77;;;6.40;90.80;;;;;;5095262;28;20168;-82
2021/03/22 05:03:22;;;;;;;15.80;7.23;;;6.40;90.60;;;;;;5095034;28;20168;-77
2021/03/22 05:05:48;;;;;;;22.37;8.27;;;6.40;90.10;;;;;;5094818;28;20164;-81
2021/03/22 05:08:16;;;;;;;22.83;8.83;;;6.40;90.50;;;;;;5095680;28;20172;-84
2021/03/22 05:10:44;;;;;;;21.73;8.17;;;6.40;90.80;;;;;;5085099;28;20253;-80
2021/03/22 05:13:13;;;;;;;20.47;8.30;;;6.30;91.10;;;;;;5075399;28;20682;-84
2021/03/22 05:15:39;;;;;;;19.63;8.20;;;6.30;92.20;;;;;;5057892;28;20574;-79
2021/03/22 05:18:06;;;;;;;18.23;7.73;;;6.20;92.00;;;;;;5077541;28;20165;-85
2021/03/22 05:20:36;;;;;;;24.10;8.27;;;6.20;92.70;;;;;;5058424;28;20165;-79
2021/03/22 05:23:05;;;;;;;22.30;9.23;;;6.30;93.20;;;;;;5074834;28;20246;-83
2021/03/22 05:25:30;;;;;;;19.93;8.57;;;6.30;93.20;;;;;;5074690;28;20180;-80
2021/03/22 05:27:56;;;;;;;20.47;8.13;;;6.40;93.10;;;;;;5056881;28;20789;-82
2021/03/22 05:30:22;;;;;;;18.47;7.70;;;6.40;92.40;;;;;;5074347;28;20568;-86
2021/03/22 05:32:48;;;;;;;23.90;8.50;;;6.50;92.20;;;;;;5074925;28;20577;-85
2021/03/22 05:35:18;;;;;;;22.30;8.23;;;6.40;91.90;;;;;;5074516;28;20181;-86
2021/03/22 05:37:44;;;;;;;22.77;9.23;;;6.60;92.30;;;;;;5057013;28;20202;-85
2021/03/22 05:40:18;;;;;;;21.80;8.57;;;6.50;92.00;;;;;;5094048;28;20190;-85
2021/03/22 05:43:02;;;;;;;24.13;9.43;;;6.50;91.80;;;;;;5094518;28;20168;-80
2021/03/22 05:45:46;;;;;;;19.17;8.23;;;6.50;91.20;;;;;;5077782;28;20203;-78
2021/03/22 05:48:37;;;;;;;28.47;9.87;;;6.40;91.70;;;;;;5078381;28;20180;-83
2021/03/22 05:51:41;;;;;;;25.13;9.13;;;6.40;91.70;;;;;;5079331;28;20225;-78
2021/03/22 05:54:18;;;;;;;22.87;8.23;;;6.40;91.90;;;;;;5097656;28;20167;-78
2021/03/22 05:57:04;;;;;;;19.90;7.47;;;6.40;91.80;;;;;;5094260;28;20189;-81
2021/03/22 05:59:36;;;;;;;21.20;8.57;;;6.30;91.40;;;;;;5094299;28;20171;-84
2021/03/22 06:02:08;;;;;;;21.80;8.57;;;6.30;91.20;;;;;;5094213;28;20222;-87
2021/03/22 06:04:51;;;;;;;23.17;7.57;;;6.40;91.30;;;;;;5094232;28;20519;-84
2021/03/22 06:07:24;;;;;;;22.27;8.30;;;6.40;91.20;;;;;;5094022;28;20207;-80
2021/03/22 06:09:59;;;;;;;21.00;7.50;;;6.40;90.80;;;;;;5091214;28;20167;-79
2021/03/22 06:12:28;;;;;;;19.47;7.50;;;6.40;90.00;;;;;;5055500;28;20187;-80
2021/03/22 06:15:15;;;;;;;25.33;8.03;;;6.40;88.70;;;;;;5073575;28;20164;-79
2021/03/22 06:17:48;;;;;;;18.30;8.03;;;6.40;88.80;;;;;;5073498;28;20240;-79
2021/03/22 06:20:26;;;;;;;19.30;8.47;;;6.40;89.80;;;;;;5074377;28;20176;-82
2021/03/22 06:23:23;;;;;;;19.63;9.10;;;6.50;88.60;;;;;;5073948;28;20241;-78
2021/03/22 06:25:50;;;;;;;28.30;8.60;;;6.50;88.20;;;;;;5073310;28;20639;-78
2021/03/22 06:28:16;;;;;;;18.40;8.10;;;6.50;88.30;;;;;;5072960;28;20305;-87
2021/03/22 06:31:10;;;;;;;23.57;9.73;;;6.60;86.70;;;;;;5055115;28;20287;-80
2021/03/22 06:33:43;;;;;;;19.67;7.00;;;6.50;86.20;;;;;;5046187;28;20180;-79
2021/03/22 06:36:15;;;;;;;23.50;8.10;;;6.50;84.70;;;;;;5073935;28;20168;-85
2021/03/22 06:38:50;;;;;;;20.40;8.80;;;6.60;84.70;;;;;;5073067;28;20168;-80
2021/03/22 06:41:42;;;;;;;22.97;7.70;;;6.80;83.40;;;;;;5073116;28;20176;-82
2021/03/22 06:44:37;;;;;;;19.50;7.07;;;6.80;77.40;;;;;;5077829;28;20168;-85
2021/03/22 06:47:13;;;;;;;17.73;7.53;;;6.80;74.10;;;;;;5055000;28;20239;-82
2021/03/22 06:49:48;;;;;;;19.60;7.40;;;6.80;73.10;;;;;;5055022;28;20172;-83
2021/03/22 06:52:16;;;;;;;16.33;7.33;;;6.90;74.30;;;;;;5072279;28;20164;-81
2021/03/22 06:54:45;;;;;;;18.67;7.50;;;6.80;72.60;;;;;;5054514;28;20538;-81
2021/03/22 06:57:16;;;;;;;18.50;7.00;;;6.80;70.00;;;;;;5074696;28;20180;-80
2021/03/22 07:00:12;;;;;;;17.83;7.27;;;6.80;66.40;;;;;;5072435;28;20168;-85
2021/03/22 07:02:40;;;;;;;18.73;7.37;;;6.80;69.60;;;;;;5054580;28;20185;-82
2021/03/22 07:05:39;;;;;;;17.77;7.10;;;6.80;65.70;;;;;;5054767;28;20176;-81
2021/03/22 07:08:09;;;;;;;22.67;6.90;;;6.90;66.00;;;;;;5049026;28;20192;-84
2021/03/22 07:10:49;;;;;;;18.60;7.30;;;6.90;61.70;;;;;;5064399;28;20225;-81
2021/03/22 07:13:23;;;;;;;18.07;7.13;;;7.00;56.70;;;;;;5078925;28;20175;-82
2021/03/22 07:15:56;;;;;;;18.47;6.83;;;7.00;56.70;;;;;;5079425;28;20291;-83
2021/03/22 07:18:21;;;;;;;22.00;7.50;;;7.00;56.20;;;;;;5079566;28;20187;-79
2021/03/22 07:21:19;;;;;;;13.80;6.30;;;7.10;52.00;;;;;;5078583;28;20218;-80
2021/03/22 07:23:44;;;;;;;15.40;6.43;;;7.10;46.80;;;;;;5097101;28;20174;-84
2021/03/22 07:26:22;;;;;;;17.00;7.00;;;7.40;40.80;;;;;;5096658;28;20207;-88
2021/03/22 07:29:12;;;;;;;12.20;6.27;;;7.20;39.20;;;;;;5097658;28;20167;-78
2021/03/22 07:32:15;;;;;;;24.07;7.30;;;7.20;38.70;;;;;;5096843;28;20168;-88
2021/03/22 07:34:44;;;;;;;18.77;7.73;;;7.30;36.60;;;;;;5089747;28;20205;-82
2021/03/22 07:37:44;;;;;;;17.27;7.13;;;7.20;35.50;;;;;;5071239;28;20237;-84
2021/03/22 07:40:24;;;;;;;15.57;6.07;;;7.20;33.40;;;;;;5072278;28;20640;-82
2021/03/22 07:42:58;;;;;;;16.43;5.97;;;7.20;32.20;;;;;;5061855;28;20646;-82
2021/03/22 07:45:40;;;;;;;27.87;8.40;;;7.20;35.90;;;;;;5065464;28;20674;-82
2021/03/22 07:48:20;;;;;;;23.43;7.20;;;7.30;32.70;;;;;;5075101;28;20180;-78
2021/03/22 07:51:30;;;;;;;16.63;7.03;;;7.40;31.90;;;;;;5075657;28;20255;-83
2021/03/22 07:54:15;;;;;;;17.27;6.63;;;7.50;29.10;;;;;;5038224;28;20212;-80
2021/03/22 07:56:53;;;;;;;20.73;7.50;;;7.50;24.70;;;;;;5076053;28;20180;-81
2021/03/22 07:59:47;;;;;;;17.63;6.90;;;7.60;20.00;;;;;;5059413;28;20179;-77
2021/03/22 08:02:41;;;;;;;13.90;5.90;;;7.70;17.40;;;;;;5057756;28;20172;-86
2021/03/22 08:05:32;;;;;;;15.60;6.00;;;7.60;13.80;;;;;;5057488;28;20179;-84
2021/03/22 08:08:19;;;;;;;14.43;6.17;;;7.50;18.60;;;;;;5075646;28;20295;-83
2021/03/22 08:11:19;;;;;;;16.07;6.67;;;7.40;16.20;;;;;;5076867;28;20207;-83
2021/03/22 08:14:10;;;;;;;18.70;7.53;;;7.30;19.00;;;;;;5095965;28;20694;-82
2021/03/22 08:16:48;;;;;;;13.93;6.87;;;7.40;22.90;;;;;;5066278;28;20203;-85
2021/03/22 08:19:17;;;;;;;14.63;7.13;;;7.50;18.20;;;;;;5093737;28;20689;-84
2021/03/22 08:22:27;;;;;;;16.63;6.57;;;7.50;13.80;;;;;;5075472;28;20590;-85
2021/03/22 08:24:59;;;;;;;14.73;6.93;;;7.60;9.70;;;;;;5050878;28;20187;-80
2021/03/22 08:27:32;;;;;;;15.60;6.43;;;7.60;9.70;;;;;;5076720;28;20215;-83
2021/03/22 08:30:26;;;;;;;14.60;6.47;;;7.60;5.50;;;;;;5094289;28;20167;-83
2021/03/22 08:33:05;;;;;;;13.73;6.97;;;7.70;3.50;;;;;;5077030;28;20176;-81
2021/03/22 08:35:41;;;;;;;13.10;6.27;;;7.70;1.00;;;;;;5095705;28;20155;-83
2021/03/22 08:38:16;;;;;;;16.27;7.43;;;7.40;1.00;;;;;;5094742;28;20164;-81
2021/03/22 08:40:54;;;;;;;15.53;6.47;;;7.70;1.00;;;;;;5076469;28;20233;-83
2021/03/22 08:43:27;;;;;;;16.50;6.80;;;7.60;1.00;;;;;;5065624;28;20329;-79
2021/03/22 08:46:21;;;;;;;14.13;7.07;;;7.70;1.00;;;;;;5075301;28;20264;-86
2021/03/22 08:48:50;;;;;;;13.40;6.20;;;7.60;1.00;;;;;;5076512;28;20178;-80
2021/03/22 08:51:42;;;;;;;14.73;6.30;;;7.60;1.00;;;;;;5076270;28;20179;-84
2021/03/22 08:54:22;;;;;;;16.00;7.03;;;7.60;1.00;;;;;;5072063;28;20183;-83
2021/03/22 08:56:58;;;;;;;12.60;6.33;;;7.60;1.00;;;;;;5077033;28;20622;-81
2021/03/22 08:59:24;;;;;;;16.80;7.73;;;7.80;1.00;;;;;;5094945;28;20552;-84
2021/03/22 09:01:50;;;;;;;12.77;6.83;;;7.90;1.00;;;;;;5076572;28;20167;-79
2021/03/22 09:04:33;;;;;;;15.10;6.80;;;8.10;1.00;;;;;;5094484;28;20515;-82
2021/03/22 09:07:21;;;;;;;16.33;7.37;;;8.00;1.00;;;;;;5093919;28;20195;-79
2021/03/22 09:09:48;;;;;;;15.13;7.13;;;8.00;1.00;;;;;;5076158;28;20220;-80
2021/03/22 09:12:33;;;;;;;15.47;7.50;;;7.90;1.00;;;;;;5076392;28;20179;-80
2021/03/22 09:15:07;;;;;;;16.47;6.93;;;7.90;1.00;;;;;;5094362;28;20225;-80
2021/03/22 09:17:55;;;;;;;14.67;6.53;;;8.00;1.00;;;;;;5094368;28;20207;-81
2021/03/22 09:20:26;;;;;;;14.17;6.83;;;8.00;1.00;;;;;;5093786;28;20178;-80
2021/03/22 09:23:16;;;;;;;18.63;7.13;;;7.80;1.00;;;;;;5094233;28;20168;-81
2021/03/22 09:25:53;;;;;;;16.90;7.17;;;7.80;1.00;;;;;;5076125;28;20190;-82
2021/03/22 09:28:26;;;;;;;15.33;6.70;;;7.90;1.00;;;;;;5075810;28;20658;-84
2021/03/22 09:31:15;;;;;;;13.03;7.00;;;8.00;1.00;;;;;;5094291;28;20620;-82
2021/03/22 09:33:47;;;;;;;17.47;6.40;;;8.00;1.00;;;;;;5038199;28;20183;-81
2021/03/22 09:36:30;;;;;;;14.40;6.70;;;7.90;1.00;;;;;;5075363;28;20206;-80
2021/03/22 09:38:56;;;;;;;13.70;6.57;;;7.90;1.00;;;;;;5075560;28;20182;-82
2021/03/22 09:41:59;;;;;;;14.87;6.97;;;7.90;1.00;;;;;;5093629;28;20168;-83
2021/03/22 09:44:34;;;;;;;18.80;7.27;;;7.90;1.00;;;;;;5079969;28;20358;-83
2021/03/22 09:47:18;;;;;;;15.17;6.60;;;8.00;1.00;;;;;;5075299;28;20211;-80
2021/03/22 09:50:08;;;;;;;19.40;7.27;;;8.10;1.00;;;;;;5073673;28;20164;-81
2021/03/22 09:52:38;;;;;;;18.20;7.10;;;8.20;1.00;;;;;;5092841;28;20201;-84
2021/03/22 09:55:26;;;;;;;17.37;8.40;;;8.40;1.00;;;;;;5075255;28;20198;-80
2021/03/22 09:57:57;;;;;;;20.53;7.37;;;8.40;1.00;;;;;;5074965;28;20551;-83
2021/03/22 10:00:27;;;;;;;14.80;6.93;;;8.50;1.00;;;;;;5093352;28;20170;-83
2021/03/22 10:02:56;;;;;;;13.33;6.87;;;8.40;1.00;;;;;;5074527;28;20186;-84
2021/03/22 10:05:28;;;;;;;16.93;6.93;;;8.60;1.00;;;;;;5093049;28;20209;-85
2021/03/22 10:08:26;;;;;;;15.20;6.87;;;8.50;1.00;;;;;;5093336;28;20203;-83
2021/03/22 10:11:18;;;;;;;14.33;7.90;;;8.50;1.00;;;;;;5070876;28;20179;-80
2021/03/22 10:13:47;;;;;;;17.53;7.33;;;8.60;1.00;;;;;;5093432;28;20184;-81
2021/03/22 10:16:26;;;;;;;13.53;6.10;;;8.70;1.00;;;;;;5093202;28;20172;-80
2021/03/22 10:18:57;;;;;;;15.93;7.17;;;8.50;1.00;;;;;;5092761;28;20282;-80
2021/03/22 10:21:32;;;;;;;14.53;6.67;;;8.50;1.00;;;;;;5074737;28;20178;-81
2021/03/22 10:24:19;;;;;;;12.17;5.73;;;8.40;1.00;;;;;;5093292;28;20167;-82
2021/03/22 10:26:50;;;;;;;17.33;6.80;;;8.30;1.00;;;;;;5093230;28;20253;-83
2021/03/22 10:29:25;;;;;;;18.57;6.60;;;8.20;1.00;;;;;;5074707;28;20243;-82
2021/03/22 10:32:17;;;;;;;14.67;6.30;;;8.10;1.00;;;;;;5074665;28;20167;-81
2021/03/22 10:34:55;;;;;;;13.43;5.57;;;8.20;1.00;;;;;;5092681;28;20212;-81
2021/03/22 10:37:32;;;;;;;12.00;5.20;;;8.10;1.00;;;;;;5075631;28;20176;-83
2021/03/22 10:40:27;;;;;;;10.97;4.63;;;8.20;1.00;;;;;;5075343;28;20265;-87
2021/03/22 10:42:54;;;;;;;12.77;4.93;;;8.20;1.00;;;;;;5074185;28;20662;-84
2021/03/22 10:45:23;;;;;;;13.47;4.80;;;8.20;1.00;;;;;;5067805;28;20266;-79
2021/03/22 10:47:50;;;;;;;12.87;4.60;;;8.10;1.00;;;;;;5092099;28;20191;-81
2021/03/22 10:50:19;;;;;;;10.00;4.50;;;8.20;1.00;;;;;;5074555;28;20324;-81
2021/03/22 10:53:00;;;;;;;10.93;5.20;;;8.20;1.00;;;;;;5073977;28;20186;-82
2021/03/22 10:55:29;;;;;;;11.17;4.33;;;8.20;1.00;;;;;;5093249;28;20163;-83
2021/03/22 10:58:00;;;;;;;8.73;4.17;;;8.20;1.00;;;;;;5093032;28;20179;-82
2021/03/22 11:00:34;;;;;;;12.73;4.97;;;8.20;1.00;;;;;;5074424;28;20647;-83
2021/03/22 11:03:03;;;;;;;15.10;6.53;;;8.10;1.00;;;;;;5092739;28;20222;-84
2021/03/22 11:05:41;;;;;;;11.00;4.67;;;8.10;1.00;;;;;;5093148;28;20194;-79
2021/03/22 11:08:21;;;;;;;13.77;5.10;;;8.10;1.00;;;;;;5092554;28;20230;-81
2021/03/22 11:10:47;;;;;;;11.60;5.90;;;8.20;1.00;;;;;;5074471;28;20172;-86
2021/03/22 11:13:23;;;;;;;14.13;6.30;;;8.40;1.00;;;;;;5092562;28;20183;-87
2021/03/22 11:15:50;;;;;;;9.07;4.50;;;8.60;1.00;;;;;;5074025;28;20171;-78
2021/03/22 11:18:19;;;;;;;10.00;4.27;;;8.50;1.00;;;;;;5072659;28;20178;-82
2021/03/22 11:20:47;;;;;;;13.43;5.37;;;8.50;1.00;;;;;;5073448;28;20226;-82
2021/03/22 11:23:41;;;;;;;7.83;4.10;;;8.60;1.00;;;;;;5092478;28;20217;-81
2021/03/22 11:26:27;;;;;;;11.47;4.33;;;8.70;1.00;;;;;;5092716;28;20187;-82
2021/03/22 11:29:15;;;;;;;8.03;3.80;;;8.70;1.00;;;;;;5093197;28;20164;-83
2021/03/22 11:31:44;;;;;;;10.87;4.23;;;8.60;1.00;;;;;;5090521;28;20195;-85
2021/03/22 11:34:20;;;;;;;9.47;4.00;;;8.80;1.00;;;;;;5076738;28;20271;-80
2021/03/22 11:36:46;;;;;;;12.80;4.13;;;8.80;1.00;;;;;;5070357;28;20168;-86
2021/03/22 11:39:11;;;;;;;9.47;3.97;;;8.90;1.00;;;;;;5092121;28;20246;-81
2021/03/22 11:41:44;;;;;;;8.63;3.40;;;8.90;1.00;;;;;;5092181;28;20195;-82
2021/03/22 11:44:37;;;;;;;12.10;3.70;;;8.60;1.00;;;;;;5060887;28;20168;-81
2021/03/22 11:47:18;;;;;;;8.77;3.73;;;8.70;1.00;;;;;;5074792;28;20203;-79
2021/03/22 11:49:48;;;;;;;8.23;4.57;;;8.60;1.00;;;;;;5093778;28;20471;-79
2021/03/22 11:52:33;;;;;;;8.90;3.63;;;8.60;1.00;;;;;;5094943;28;20534;-85
2021/03/22 11:55:33;;;;;;;12.10;4.70;;;8.40;1.00;;;;;;5095340;28;20214;-81
2021/03/22 11:57:59;;;;;;;10.40;4.43;;;8.50;1.00;;;;;;5091282;28;20210;-86
2021/03/22 12:00:29;;;;;;;12.70;5.23;;;8.70;1.00;;;;;;5078206;28;20513;-82
2021/03/22 12:03:26;;;;;;;9.13;4.07;;;8.80;1.00;;;;;;5096209;28;20193;-80
2021/03/22 12:06:14;;;;;;;10.17;3.17;;;8.60;1.00;;;;;;5082560;28;20192;-81
2021/03/22 12:08:45;;;;;;;5.90;2.70;;;8.30;1.00;;;;;;5056441;28;20184;-84
2021/03/22 12:11:15;;;;;;;7.17;2.50;;;8.10;1.00;;;;;;5074100;28;20180;-81
2021/03/22 12:13:40;;;;;;;5.33;2.37;;;8.10;1.00;;;;;;5056750;28;20696;-78
2021/03/22 12:16:08;;;;;;;5.43;2.17;;;8.10;1.00;;;;;;5075535;28;20168;-81
2021/03/22 12:18:39;;;;;;;6.33;1.87;;;7.90;1.00;;;;;;5058125;28;20169;-82
2021/03/22 12:21:13;;;;;;;7.80;2.30;;;7.90;1.00;;;;;;5074919;28;20247;-80
2021/03/22 12:23:38;;;;;;;4.10;2.20;;;8.00;1.00;;;;;;5056085;28;20522;-81
2021/03/22 12:26:05;;;;;;;5.43;1.97;;;8.00;1.00;;;;;;5073944;28;20188;-83
2021/03/22 12:28:30;;;;;;;6.67;2.17;;;8.10;1.00;;;;;;5074236;28;20248;-82
2021/03/22 12:30:56;;;;;;;7.47;2.40;;;8.10;1.00;;;;;;5074169;28;20248;-84
2021/03/22 12:33:27;;;;;;;5.87;2.17;;;8.30;1.00;;;;;;5056324;28;20607;-82
2021/03/22 12:35:53;;;;;;;5.67;2.00;;;8.40;1.00;;;;;;5056234;28;20186;-81
2021/03/22 12:38:19;;;;;;;5.70;2.40;;;8.50;1.00;;;;;;5059044;28;20184;-83
2021/03/22 12:40:46;;;;;;;5.83;2.50;;;8.50;1.00;;;;;;5076748;28;20705;-80
2021/03/22 12:43:29;;;;;;;14.00;2.80;;;8.50;1.00;;;;;;5085873;28;20176;-87
2021/03/22 12:45:54;;;;;;;5.27;2.83;;;8.60;1.00;;;;;;5062967;28;20610;-82
2021/03/22 12:48:20;;;;;;;6.63;3.27;;;8.60;1.00;;;;;;5093783;28;20203;-83
2021/03/22 12:50:49;;;;;;;7.20;3.10;;;8.40;1.00;;;;;;5076004;28;20569;-82
2021/03/22 12:53:16;;;;;;;10.73;3.27;;;8.40;1.00;;;;;;5094103;28;20635;-81
2021/03/22 12:55:42;;;;;;;7.70;3.87;;;8.40;1.00;;;;;;5093904;28;20164;-84
2021/03/22 12:58:22;;;;;;;10.23;3.73;;;8.60;1.00;;;;;;5094135;28;20191;-83
2021/03/22 13:00:50;;;;;;;12.87;4.47;;;8.80;1.00;;;;;;5075900;28;20179;-81
2021/03/22 13:03:28;;;;;;;8.00;3.37;;;8.80;1.00;;;;;;5074388;28;20654;-85
2021/03/22 13:05:55;;;;;;;9.00;3.60;;;9.00;1.00;;;;;;5076688;28;20168;-84
2021/03/22 13:08:23;;;;;;;9.90;3.60;;;9.00;1.00;;;;;;5075278;28;20179;-84
2021/03/22 13:10:49;;;;;;;11.00;3.20;;;9.00;1.00;;;;;;5076144;28;20538;-80
2021/03/22 13:13:15;;;;;;;9.40;3.80;;;9.00;1.00;;;;;;5093828;28;20258;-82
2021/03/22 13:15:43;;;;;;;7.80;3.50;;;9.10;1.00;;;;;;5074926;28;20650;-83
2021/03/22 13:18:20;;;;;;;11.77;3.67;;;9.10;1.00;;;;;;5093818;28;20344;-83
2021/03/22 13:20:53;;;;;;;6.40;3.03;;;9.10;1.00;;;;;;5094143;28;20199;-82
2021/03/22 13:23:20;;;;;;;7.73;2.60;;;9.00;1.00;;;;;;5076001;28;20168;-79
2021/03/22 13:25:47;;;;;;;4.63;1.83;;;9.00;1.00;;;;;;5075397;28;20620;-80
2021/03/22 13:28:20;;;;;;;5.63;2.03;;;8.90;1.00;;;;;;5092453;28;20253;-81